Time,TemperatureF,DewpointF,PressureIn,WindDirection,WindDirectionDegrees,WindSpeedMPH,WindSpeedGustMPH,Humidity,HourlyPrecipIn,Conditions,Clouds,dailyrainin,SoftwareType,DateUTC
2013-02-03 00:02:00,42.9,33.4,30.01,South,170,1.0,1.0,69,0.00,,,0.00,Wunderground v.1.15,2013-02-03 05:02:00,
2013-02-03 00:04:00,42.9,33.4,30.01,South,180,1.0,1.0,69,0.00,,,0.00,Wunderground v.1.15,2013-02-03 05:04:00,
2013-02-03 00:08:00,42.8,33.7,30.01,SW,223,1.0,3.0,70,0.00,,,0.00,Wunderground v.1.15,2013-02-03 05:08:00,
2013-02-03 00:14:00,42.8,33.3,30.00,WSW,255,2.0,4.0,69,0.00,,,0.00,Wunderground v.1.15,2013-02-03 05:14:00,
2013-02-03 00:16:00,42.8,34.0,30.01,SW,225,2.0,4.0,71,0.00,,,0.00,Wunderground v.1.15,2013-02-03 05:16:00,
2013-02-03 00:22:00,42.8,34.0,30.00,NW,310,2.0,2.0,71,0.00,,,0.00,Wunderground v.1.15,2013-02-03 05:22:00,
2013-02-03 00:28:00,42.5,34.5,30.00,WNW,302,1.0,2.0,73,0.00,,,0.00,Wunderground v.1.15,2013-02-03 05:28:00,
2013-02-03 00:34:00,42.4,34.0,30.00,WSW,240,1.0,2.0,72,0.00,,,0.00,Wunderground v.1.15,2013-02-03 05:34:00,
2013-02-03 00:40:00,42.4,34.4,30.00,North,350,1.0,5.0,73,0.00,,,0.00,Wunderground v.1.15,2013-02-03 05:40:00,
2013-02-03 00:46:00,42.4,34.0,29.99,NNW,338,1.0,5.0,72,0.00,,,0.00,Wunderground v.1.15,2013-02-03 05:46:00,
2013-02-03 00:52:00,42.3,34.3,29.99,NNW,338,1.0,1.0,73,0.00,,,0.00,Wunderground v.1.15,2013-02-03 05:52:00,
2013-02-03 00:58:00,42.1,34.4,29.99,NE,55,1.0,3.0,74,0.00,,,0.00,Wunderground v.1.15,2013-02-03 05:58:00,
2013-02-03 01:04:00,41.9,34.6,29.98,East,82,1.0,1.0,75,0.00,,,0.00,Wunderground v.1.15,2013-02-03 06:04:00,
2013-02-03 01:10:00,41.7,34.7,29.98,East,82,0.0,0.0,76,0.00,,,0.00,Wunderground v.1.15,2013-02-03 06:10:00,
2013-02-03 01:16:00,41.5,34.8,29.98,WNW,284,1.0,2.0,77,0.00,,,0.00,Wunderground v.1.15,2013-02-03 06:16:00,
2013-02-03 01:22:00,41.4,35.1,29.98,WNW,284,1.0,1.0,78,0.00,,,0.00,Wunderground v.1.15,2013-02-03 06:22:00,
2013-02-03 01:28:00,41.3,35.3,29.98,WNW,284,0.0,1.0,79,0.00,,,0.00,Wunderground v.1.15,2013-02-03 06:28:00,
2013-02-03 01:34:00,41.2,35.2,29.97,NW,325,1.0,1.0,79,0.00,,,0.00,Wunderground v.1.15,2013-02-03 06:34:00,
2013-02-03 01:40:00,41.1,35.1,29.97,North,9,1.0,2.0,79,0.00,,,0.00,Wunderground v.1.15,2013-02-03 06:40:00,
2013-02-03 01:46:00,41.1,35.1,29.97,NNE,26,1.0,3.0,79,0.00,,,0.00,Wunderground v.1.15,2013-02-03 06:46:00,
2013-02-03 01:52:00,41.0,35.3,29.96,NNW,333,1.0,2.0,80,0.00,,,0.00,Wunderground v.1.15,2013-02-03 06:52:00,
2013-02-03 01:58:00,40.9,35.2,29.96,West,267,1.0,2.0,80,0.00,,,0.00,Wunderground v.1.15,2013-02-03 06:58:00,
2013-02-03 02:04:00,40.9,35.5,29.96,North,5,0.0,2.0,81,0.00,,,0.00,Wunderground v.1.15,2013-02-03 07:04:00,
2013-02-03 02:10:00,40.8,35.4,29.96,North,5,0.0,0.0,81,0.00,,,0.00,Wunderground v.1.15,2013-02-03 07:10:00,
2013-02-03 02:16:00,40.6,35.5,29.96,North,5,0.0,0.0,82,0.00,,,0.00,Wunderground v.1.15,2013-02-03 07:16:00,
2013-02-03 02:22:00,40.5,35.4,29.96,North,5,0.0,0.0,82,0.00,,,0.00,Wunderground v.1.15,2013-02-03 07:22:00,
2013-02-03 02:28:00,40.4,35.3,29.95,North,5,0.0,0.0,82,0.00,,,0.00,Wunderground v.1.15,2013-02-03 07:28:00,
2013-02-03 02:34:00,40.3,35.2,29.95,North,5,0.0,0.0,82,0.00,,,0.00,Wunderground v.1.15,2013-02-03 07:34:00,
2013-02-03 02:40:00,39.9,34.9,29.96,North,5,0.0,0.0,82,0.00,,,0.00,Wunderground v.1.15,2013-02-03 07:40:00,
2013-02-03 02:46:00,39.4,34.7,29.96,North,5,0.0,0.0,83,0.00,,,0.00,Wunderground v.1.15,2013-02-03 07:46:00,
2013-02-03 02:52:00,39.1,34.4,29.96,North,5,0.0,0.0,83,0.00,,,0.00,Wunderground v.1.15,2013-02-03 07:52:00,
2013-02-03 02:58:00,38.8,34.4,29.96,North,5,0.0,0.0,84,0.00,,,0.00,Wunderground v.1.15,2013-02-03 07:58:00,
2013-02-03 03:04:00,38.6,34.2,29.96,North,5,0.0,0.0,84,0.00,,,0.00,Wunderground v.1.15,2013-02-03 08:04:00,
2013-02-03 03:10:00,38.4,34.0,29.96,North,5,0.0,0.0,84,0.00,,,0.00,Wunderground v.1.15,2013-02-03 08:10:00,
2013-02-03 03:16:00,38.2,34.1,29.95,North,5,0.0,0.0,85,0.00,,,0.00,Wunderground v.1.15,2013-02-03 08:16:00,
2013-02-03 03:22:00,37.9,33.8,29.95,North,5,0.0,0.0,85,0.00,,,0.00,Wunderground v.1.15,2013-02-03 08:22:00,
2013-02-03 03:28:00,37.7,33.9,29.94,North,5,0.0,0.0,86,0.00,,,0.00,Wunderground v.1.15,2013-02-03 08:28:00,
2013-02-03 03:34:00,37.5,33.7,29.94,North,5,0.0,0.0,86,0.00,,,0.00,Wunderground v.1.15,2013-02-03 08:34:00,
2013-02-03 03:40:00,37.3,33.5,29.93,North,5,0.0,0.0,86,0.00,,,0.00,Wunderground v.1.15,2013-02-03 08:40:00,
2013-02-03 03:46:00,36.9,33.4,29.93,North,5,0.0,0.0,87,0.00,,,0.00,Wunderground v.1.15,2013-02-03 08:46:00,
2013-02-03 03:52:00,36.6,32.8,29.93,North,5,0.0,0.0,86,0.00,,,0.00,Wunderground v.1.15,2013-02-03 08:52:00,
2013-02-03 03:58:00,36.2,32.4,29.93,North,5,0.0,0.0,86,0.00,,,0.00,Wunderground v.1.15,2013-02-03 08:58:00,
2013-02-03 04:04:00,36.0,32.8,29.93,North,5,0.0,0.0,88,0.00,,,0.00,Wunderground v.1.15,2013-02-03 09:04:00,
2013-02-03 04:10:00,35.7,32.5,29.93,North,5,0.0,0.0,88,0.00,,,0.00,Wunderground v.1.15,2013-02-03 09:10:00,
2013-02-03 04:16:00,35.3,32.1,29.92,North,5,0.0,0.0,88,0.00,,,0.00,Wunderground v.1.15,2013-02-03 09:16:00,
2013-02-03 04:22:00,34.8,31.6,29.92,North,5,0.0,0.0,88,0.00,,,0.00,Wunderground v.1.15,2013-02-03 09:22:00,
2013-02-03 04:28:00,34.4,31.2,29.93,North,5,0.0,0.0,88,0.00,,,0.00,Wunderground v.1.15,2013-02-03 09:28:00,
2013-02-03 04:34:00,34.1,30.9,29.93,North,5,0.0,0.0,88,0.00,,,0.00,Wunderground v.1.15,2013-02-03 09:34:00,
2013-02-03 04:40:00,33.9,31.0,29.93,North,5,0.0,0.0,89,0.00,,,0.00,Wunderground v.1.15,2013-02-03 09:40:00,
2013-02-03 04:46:00,33.7,31.1,29.93,North,5,0.0,0.0,90,0.00,,,0.00,Wunderground v.1.15,2013-02-03 09:46:00,
2013-02-03 04:52:00,33.7,31.4,29.93,North,5,0.0,0.0,91,0.00,,,0.00,Wunderground v.1.15,2013-02-03 09:52:00,
2013-02-03 04:58:00,33.7,31.4,29.93,North,5,0.0,0.0,91,0.00,,,0.00,Wunderground v.1.15,2013-02-03 09:58:00,
2013-02-03 05:04:00,33.7,31.6,29.93,North,5,0.0,0.0,92,0.00,,,0.00,Wunderground v.1.15,2013-02-03 10:04:00,
2013-02-03 05:10:00,33.8,31.7,29.92,North,5,0.0,0.0,92,0.00,,,0.00,Wunderground v.1.15,2013-02-03 10:10:00,
2013-02-03 05:16:00,33.9,32.1,29.92,North,5,0.0,0.0,93,0.00,,,0.00,Wunderground v.1.15,2013-02-03 10:16:00,
2013-02-03 05:22:00,34.1,32.3,29.92,North,5,0.0,0.0,93,0.00,,,0.00,Wunderground v.1.15,2013-02-03 10:22:00,
2013-02-03 05:28:00,34.0,32.2,29.92,North,5,0.0,0.0,93,0.00,,,0.00,Wunderground v.1.15,2013-02-03 10:28:00,
2013-02-03 05:34:00,34.0,32.2,29.92,North,5,0.0,0.0,93,0.00,,,0.00,Wunderground v.1.15,2013-02-03 10:34:00,
2013-02-03 05:40:00,34.0,32.2,29.92,North,5,0.0,0.0,93,0.00,,,0.00,Wunderground v.1.15,2013-02-03 10:40:00,
2013-02-03 05:46:00,34.0,31.9,29.92,North,5,0.0,0.0,92,0.00,,,0.00,Wunderground v.1.15,2013-02-03 10:46:00,
2013-02-03 05:52:00,34.1,32.3,29.92,North,5,0.0,0.0,93,0.00,,,0.00,Wunderground v.1.15,2013-02-03 10:52:00,
2013-02-03 05:58:00,34.2,32.4,29.92,North,5,0.0,0.0,93,0.00,,,0.00,Wunderground v.1.15,2013-02-03 10:58:00,
2013-02-03 06:04:00,34.3,32.8,29.92,North,5,0.0,0.0,94,0.00,,,0.00,Wunderground v.1.15,2013-02-03 11:04:00,
2013-02-03 06:10:00,34.4,32.9,29.92,North,5,0.0,0.0,94,0.00,,,0.00,Wunderground v.1.15,2013-02-03 11:10:00,
2013-02-03 06:16:00,34.5,33.0,29.92,North,5,0.0,0.0,94,0.00,,,0.00,Wunderground v.1.15,2013-02-03 11:16:00,
2013-02-03 06:22:00,34.6,33.1,29.92,North,5,0.0,0.0,94,0.00,,,0.00,Wunderground v.1.15,2013-02-03 11:22:00,
2013-02-03 06:28:00,34.7,33.2,29.92,North,5,0.0,0.0,94,0.00,,,0.00,Wunderground v.1.15,2013-02-03 11:28:00,
2013-02-03 06:34:00,34.7,33.2,29.91,North,5,0.0,0.0,94,0.00,,,0.00,Wunderground v.1.15,2013-02-03 11:34:00,
2013-02-03 06:40:00,34.8,33.0,29.91,North,5,0.0,0.0,93,0.00,,,0.00,Wunderground v.1.15,2013-02-03 11:40:00,
2013-02-03 06:46:00,35.0,33.4,29.92,North,5,0.0,0.0,94,0.00,,,0.00,Wunderground v.1.15,2013-02-03 11:46:00,
2013-02-03 06:52:00,35.2,33.6,29.92,North,5,0.0,0.0,94,0.00,,,0.00,Wunderground v.1.15,2013-02-03 11:52:00,
2013-02-03 06:58:00,35.2,33.6,29.92,North,5,0.0,0.0,94,0.00,,,0.00,Wunderground v.1.15,2013-02-03 11:58:00,
2013-02-03 07:04:00,35.2,33.6,29.92,North,5,0.0,0.0,94,0.00,,,0.00,Wunderground v.1.15,2013-02-03 12:04:00,
2013-02-03 07:10:00,35.2,33.6,29.92,North,5,0.0,0.0,94,0.00,,,0.00,Wunderground v.1.15,2013-02-03 12:10:00,
2013-02-03 07:16:00,35.3,33.7,29.92,North,5,0.0,0.0,94,0.00,,,0.00,Wunderground v.1.15,2013-02-03 12:16:00,
2013-02-03 07:22:00,35.3,33.7,29.92,North,5,0.0,0.0,94,0.00,,,0.00,Wunderground v.1.15,2013-02-03 12:22:00,
2013-02-03 07:28:00,35.4,33.8,29.93,North,5,0.0,0.0,94,0.00,,,0.00,Wunderground v.1.15,2013-02-03 12:28:00,
2013-02-03 07:34:00,35.5,33.9,29.93,North,5,0.0,0.0,94,0.00,,,0.00,Wunderground v.1.15,2013-02-03 12:34:00,
2013-02-03 07:40:00,35.5,33.9,29.92,North,5,0.0,0.0,94,0.00,,,0.00,Wunderground v.1.15,2013-02-03 12:40:00,
2013-02-03 07:46:00,35.7,34.1,29.93,North,5,0.0,0.0,94,0.00,,,0.00,Wunderground v.1.15,2013-02-03 12:46:00,
2013-02-03 07:52:00,35.7,34.4,29.93,North,5,0.0,0.0,95,0.00,,,0.00,Wunderground v.1.15,2013-02-03 12:52:00,
2013-02-03 07:58:00,35.9,34.6,29.93,North,5,0.0,0.0,95,0.00,,,0.00,Wunderground v.1.15,2013-02-03 12:58:00,
2013-02-03 08:04:00,36.0,34.7,29.93,North,5,0.0,0.0,95,0.00,,,0.00,Wunderground v.1.15,2013-02-03 13:04:00,
2013-02-03 08:10:00,36.2,34.9,29.93,North,5,0.0,0.0,95,0.00,,,0.00,Wunderground v.1.15,2013-02-03 13:10:00,
2013-02-03 08:16:00,36.4,35.1,29.93,North,5,0.0,0.0,95,0.00,,,0.00,Wunderground v.1.15,2013-02-03 13:16:00,
2013-02-03 08:22:00,36.7,35.4,29.93,North,5,0.0,0.0,95,0.00,,,0.00,Wunderground v.1.15,2013-02-03 13:22:00,
2013-02-03 08:28:00,36.9,35.6,29.93,North,5,0.0,0.0,95,0.00,,,0.00,Wunderground v.1.15,2013-02-03 13:28:00,
2013-02-03 08:34:00,37.2,35.9,29.93,North,5,0.0,1.0,95,0.00,,,0.00,Wunderground v.1.15,2013-02-03 13:34:00,
2013-02-03 08:40:00,37.5,35.9,29.94,North,5,0.0,0.0,94,0.00,,,0.00,Wunderground v.1.15,2013-02-03 13:40:00,
2013-02-03 08:46:00,37.7,35.9,29.93,North,5,0.0,0.0,93,0.00,,,0.00,Wunderground v.1.15,2013-02-03 13:46:00,
2013-02-03 08:52:00,38.1,36.0,29.93,NW,323,0.0,2.0,92,0.00,,,0.00,Wunderground v.1.15,2013-02-03 13:52:00,
2013-02-03 08:58:00,38.7,35.5,29.93,NNW,332,1.0,4.0,88,0.00,,,0.00,Wunderground v.1.15,2013-02-03 13:58:00,
2013-02-03 09:04:00,39.3,35.5,29.93,NNW,341,1.0,2.0,86,0.00,,,0.00,Wunderground v.1.15,2013-02-03 14:04:00,
2013-02-03 09:10:00,39.8,35.1,29.92,NNE,17,1.0,1.0,83,0.00,,,0.00,Wunderground v.1.15,2013-02-03 14:10:00,
2013-02-03 09:16:00,40.0,34.3,29.92,West,278,1.0,6.0,80,0.00,,,0.00,Wunderground v.1.15,2013-02-03 14:16:00,
2013-02-03 09:22:00,40.4,34.4,29.92,East,88,2.0,2.0,79,0.00,,,0.00,Wunderground v.1.15,2013-02-03 14:22:00,
2013-02-03 09:28:00,40.7,33.7,29.92,NNE,31,2.0,2.0,76,0.00,,,0.00,Wunderground v.1.15,2013-02-03 14:28:00,
2013-02-03 09:34:00,40.9,33.6,29.93,North,349,2.0,2.0,75,0.00,,,0.00,Wunderground v.1.15,2013-02-03 14:34:00,
2013-02-03 09:40:00,41.4,33.4,29.93,North,5,2.0,2.0,73,0.00,,,0.00,Wunderground v.1.15,2013-02-03 14:40:00,
2013-02-03 09:46:00,42.0,33.3,29.93,NNW,347,2.0,3.0,71,0.00,,,0.00,Wunderground v.1.15,2013-02-03 14:46:00,
2013-02-03 09:52:00,42.5,33.4,29.93,North,355,2.0,2.0,70,0.00,,,0.00,Wunderground v.1.15,2013-02-03 14:52:00,
2013-02-03 09:58:00,43.0,32.8,29.93,NNE,24,2.0,3.0,67,0.00,,,0.00,Wunderground v.1.15,2013-02-03 14:58:00,
2013-02-03 10:04:00,43.3,31.9,29.93,SSE,165,2.0,2.0,64,0.00,,,0.00,Wunderground v.1.15,2013-02-03 15:04:00,
2013-02-03 10:10:00,43.4,32.4,29.93,West,271,2.0,2.0,65,0.00,,,0.00,Wunderground v.1.15,2013-02-03 15:10:00,
2013-02-03 10:16:00,43.8,32.0,29.93,NE,35,2.0,4.0,63,0.00,,,0.00,Wunderground v.1.15,2013-02-03 15:16:00,
2013-02-03 10:22:00,43.9,30.9,29.93,NW,325,2.0,2.0,60,0.00,,,0.00,Wunderground v.1.15,2013-02-03 15:22:00,
2013-02-03 10:28:00,44.3,30.4,29.93,East,92,2.0,4.0,58,0.00,,,0.00,Wunderground v.1.15,2013-02-03 15:28:00,
2013-02-03 10:34:00,44.3,29.1,29.93,NW,305,2.0,6.0,55,0.00,,,0.00,Wunderground v.1.15,2013-02-03 15:34:00,
2013-02-03 10:40:00,44.0,28.9,29.92,NNE,19,4.0,4.0,55,0.00,,,0.00,Wunderground v.1.15,2013-02-03 15:40:00,
2013-02-03 10:46:00,44.3,29.6,29.93,NNW,346,3.0,4.0,56,0.00,,,0.00,Wunderground v.1.15,2013-02-03 15:46:00,
2013-02-03 10:52:00,44.3,29.1,29.92,ENE,66,3.0,3.0,55,0.00,,,0.00,Wunderground v.1.15,2013-02-03 15:52:00,
2013-02-03 10:58:00,44.3,30.0,29.93,NE,55,2.0,5.0,57,0.00,,,0.00,Wunderground v.1.15,2013-02-03 15:58:00,
2013-02-03 11:04:00,44.4,29.2,29.92,NNE,22,2.0,4.0,55,0.00,,,0.00,Wunderground v.1.15,2013-02-03 16:04:00,
2013-02-03 11:10:00,44.3,28.2,29.92,North,11,2.0,4.0,53,0.00,,,0.00,Wunderground v.1.15,2013-02-03 16:10:00,
2013-02-03 11:16:00,44.3,28.7,29.92,West,277,3.0,4.0,54,0.00,,,0.00,Wunderground v.1.15,2013-02-03 16:16:00,
2013-02-03 11:22:00,44.7,27.7,29.91,NE,55,3.0,4.0,51,0.00,,,0.00,Wunderground v.1.15,2013-02-03 16:22:00,
2013-02-03 11:28:00,44.8,28.2,29.91,NE,45,3.0,5.0,52,0.00,,,0.00,Wunderground v.1.15,2013-02-03 16:28:00,
2013-02-03 11:34:00,45.1,28.0,29.91,NW,314,2.0,3.0,51,0.00,,,0.00,Wunderground v.1.15,2013-02-03 16:34:00,
2013-02-03 11:40:00,45.5,28.4,29.91,WNW,287,2.0,2.0,51,0.00,,,0.00,Wunderground v.1.15,2013-02-03 16:40:00,
2013-02-03 11:46:00,45.8,28.2,29.90,WNW,282,2.0,2.0,50,0.00,,,0.00,Wunderground v.1.15,2013-02-03 16:46:00,
2013-02-03 11:52:00,45.8,28.2,29.90,SSW,211,2.0,5.0,50,0.00,,,0.00,Wunderground v.1.15,2013-02-03 16:52:00,
2013-02-03 11:58:00,45.8,28.7,29.90,NW,325,2.0,5.0,51,0.00,,,0.00,Wunderground v.1.15,2013-02-03 16:58:00,
2013-02-03 12:04:00,46.1,27.5,29.90,NNE,30,2.0,5.0,48,0.00,,,0.00,Wunderground v.1.15,2013-02-03 17:04:00,
2013-02-03 12:10:00,45.8,27.7,29.90,North,355,3.0,3.0,49,0.00,,,0.00,Wunderground v.1.15,2013-02-03 17:10:00,
2013-02-03 12:16:00,46.3,27.7,29.90,West,267,2.0,3.0,48,0.00,,,0.00,Wunderground v.1.15,2013-02-03 17:16:00,
2013-02-03 12:22:00,46.9,26.6,29.89,ESE,122,2.0,4.0,45,0.00,,,0.00,Wunderground v.1.15,2013-02-03 17:22:00,
2013-02-03 12:28:00,46.4,26.7,29.89,ENE,60,3.0,4.0,46,0.00,,,0.00,Wunderground v.1.15,2013-02-03 17:28:00,
2013-02-03 12:34:00,46.0,26.4,29.89,West,267,2.0,4.0,46,0.00,,,0.00,Wunderground v.1.15,2013-02-03 17:34:00,
2013-02-03 12:40:00,46.2,27.1,29.89,NW,326,2.0,2.0,47,0.00,,,0.00,Wunderground v.1.15,2013-02-03 17:40:00,
2013-02-03 12:46:00,46.5,26.8,29.88,North,11,3.0,3.0,46,0.00,,,0.00,Wunderground v.1.15,2013-02-03 17:46:00,
2013-02-03 12:52:00,46.5,26.3,29.88,South,178,2.0,3.0,45,0.00,,,0.00,Wunderground v.1.15,2013-02-03 17:52:00,
2013-02-03 12:58:00,46.8,27.6,29.88,WSW,253,2.0,3.0,47,0.00,,,0.00,Wunderground v.1.15,2013-02-03 17:58:00,
2013-02-03 13:04:00,47.8,28.0,29.87,WSW,258,2.0,2.0,46,0.00,,,0.00,Wunderground v.1.15,2013-02-03 18:04:00,
2013-02-03 13:10:00,48.3,27.9,29.86,NW,311,3.0,5.0,45,0.00,,,0.00,Wunderground v.1.15,2013-02-03 18:10:00,
2013-02-03 13:16:00,48.3,27.4,29.86,SW,219,3.0,5.0,44,0.00,,,0.00,Wunderground v.1.15,2013-02-03 18:16:00,
2013-02-03 13:22:00,48.6,27.6,29.85,SSW,202,2.0,4.0,44,0.00,,,0.00,Wunderground v.1.15,2013-02-03 18:22:00,
2013-02-03 13:28:00,48.1,27.7,29.85,NNW,337,3.0,5.0,45,0.00,,,0.00,Wunderground v.1.15,2013-02-03 18:28:00,
2013-02-03 13:34:00,48.1,27.7,29.84,SW,228,3.0,3.0,45,0.00,,,0.00,Wunderground v.1.15,2013-02-03 18:34:00,
2013-02-03 13:40:00,48.6,27.6,29.84,WSW,254,2.0,2.0,44,0.00,,,0.00,Wunderground v.1.15,2013-02-03 18:40:00,
2013-02-03 13:46:00,48.5,27.6,29.84,NE,52,2.0,2.0,44,0.00,,,0.00,Wunderground v.1.15,2013-02-03 18:46:00,
2013-02-03 13:52:00,48.6,27.6,29.84,NNE,19,2.0,2.0,44,0.00,,,0.00,Wunderground v.1.15,2013-02-03 18:52:00,
2013-02-03 13:58:00,48.5,28.1,29.84,West,267,2.0,4.0,45,0.00,,,0.00,Wunderground v.1.15,2013-02-03 18:58:00,
2013-02-03 14:04:00,48.1,28.3,29.84,South,173,2.0,2.0,46,0.00,,,0.00,Wunderground v.1.15,2013-02-03 19:04:00,
2013-02-03 14:10:00,47.9,28.6,29.84,NW,317,2.0,2.0,47,0.00,,,0.00,Wunderground v.1.15,2013-02-03 19:10:00,
2013-02-03 14:16:00,48.3,29.0,29.83,SSW,213,1.0,3.0,47,0.00,,,0.00,Wunderground v.1.15,2013-02-03 19:16:00,
2013-02-03 14:22:00,48.2,27.8,29.83,West,265,1.0,7.0,45,0.00,,,0.00,Wunderground v.1.15,2013-02-03 19:22:00,
2013-02-03 14:28:00,48.6,29.3,29.83,ENE,58,2.0,7.0,47,0.00,,,0.00,Wunderground v.1.15,2013-02-03 19:28:00,
2013-02-03 14:34:00,49.2,29.8,29.83,SSW,202,2.0,5.0,47,0.00,,,0.00,Wunderground v.1.15,2013-02-03 19:34:00,
2013-02-03 14:40:00,50.2,30.2,29.83,West,279,2.0,2.0,46,0.00,,,0.00,Wunderground v.1.15,2013-02-03 19:40:00,
2013-02-03 14:46:00,50.1,29.0,29.83,WNW,297,2.0,2.0,44,0.00,,,0.00,Wunderground v.1.15,2013-02-03 19:46:00,
2013-02-03 14:52:00,50.1,29.6,29.83,SW,232,2.0,2.0,45,0.00,,,0.00,Wunderground v.1.15,2013-02-03 19:52:00,
2013-02-03 14:58:00,49.9,28.3,29.83,West,259,2.0,2.0,43,0.00,,,0.00,Wunderground v.1.15,2013-02-03 19:58:00,
2013-02-03 15:04:00,49.1,28.7,29.83,WSW,242,2.0,2.0,45,0.00,,,0.00,Wunderground v.1.15,2013-02-03 20:04:00,
2013-02-03 15:10:00,48.5,28.6,29.83,ESE,117,2.0,2.0,46,0.00,,,0.00,Wunderground v.1.15,2013-02-03 20:10:00,
2013-02-03 15:16:00,48.2,28.9,29.83,SSE,163,2.0,3.0,47,0.00,,,0.00,Wunderground v.1.15,2013-02-03 20:16:00,
2013-02-03 15:22:00,47.9,29.1,29.83,NE,55,1.0,4.0,48,0.00,,,0.00,Wunderground v.1.15,2013-02-03 20:22:00,
2013-02-03 15:28:00,47.6,28.3,29.84,WSW,254,1.0,4.0,47,0.00,,,0.00,Wunderground v.1.15,2013-02-03 20:28:00,
2013-02-03 15:34:00,47.4,29.7,29.83,WSW,254,1.0,1.0,50,0.00,,,0.00,Wunderground v.1.15,2013-02-03 20:34:00,
2013-02-03 15:40:00,47.4,29.7,29.83,WSW,254,0.0,0.0,50,0.00,,,0.00,Wunderground v.1.15,2013-02-03 20:40:00,
2013-02-03 15:46:00,47.4,29.2,29.84,WSW,254,0.0,0.0,49,0.00,,,0.00,Wunderground v.1.15,2013-02-03 20:46:00,
2013-02-03 15:52:00,47.5,28.8,29.84,SW,223,1.0,2.0,48,0.00,,,0.00,Wunderground v.1.15,2013-02-03 20:52:00,
2013-02-03 15:58:00,47.8,29.5,29.84,SW,223,0.0,2.0,49,0.00,,,0.00,Wunderground v.1.15,2013-02-03 20:58:00,
2013-02-03 16:04:00,48.0,29.7,29.83,WSW,247,0.0,1.0,49,0.00,,,0.00,Wunderground v.1.15,2013-02-03 21:04:00,
2013-02-03 16:10:00,48.3,29.5,29.83,NW,309,1.0,2.0,48,0.00,,,0.00,Wunderground v.1.15,2013-02-03 21:10:00,
2013-02-03 16:16:00,48.4,29.6,29.84,East,91,1.0,2.0,48,0.00,,,0.00,Wunderground v.1.15,2013-02-03 21:16:00,
2013-02-03 16:22:00,48.3,29.5,29.84,WSW,247,1.0,1.0,48,0.00,,,0.00,Wunderground v.1.15,2013-02-03 21:22:00,
2013-02-03 16:28:00,48.1,29.8,29.84,West,271,1.0,3.0,49,0.00,,,0.00,Wunderground v.1.15,2013-02-03 21:28:00,
2013-02-03 16:34:00,47.9,29.6,29.84,West,267,1.0,3.0,49,0.00,,,0.00,Wunderground v.1.15,2013-02-03 21:34:00,
2013-02-03 16:40:00,47.6,30.3,29.84,North,350,2.0,4.0,51,0.00,,,0.00,Wunderground v.1.15,2013-02-03 21:40:00,
2013-02-03 16:46:00,47.3,30.5,29.85,NW,323,2.0,8.0,52,0.00,,,0.00,Wunderground v.1.15,2013-02-03 21:46:00,
2013-02-03 16:52:00,47.1,30.8,29.85,East,94,2.0,2.0,53,0.00,,,0.00,Wunderground v.1.15,2013-02-03 21:52:00,
2013-02-03 16:58:00,47.0,30.7,29.85,NNE,26,1.0,2.0,53,0.00,,,0.00,Wunderground v.1.15,2013-02-03 21:58:00,
2013-02-03 17:04:00,46.9,30.6,29.85,NE,52,1.0,2.0,53,0.00,,,0.00,Wunderground v.1.15,2013-02-03 22:04:00,
2013-02-03 17:10:00,46.8,31.5,29.85,West,279,1.0,2.0,55,0.00,,,0.00,Wunderground v.1.15,2013-02-03 22:10:00,
2013-02-03 17:16:00,46.7,30.5,29.85,West,262,1.0,3.0,53,0.00,,,0.00,Wunderground v.1.15,2013-02-03 22:16:00,
2013-02-03 17:22:00,46.7,30.9,29.86,SSW,206,2.0,2.0,54,0.00,,,0.00,Wunderground v.1.15,2013-02-03 22:22:00,
2013-02-03 17:28:00,46.5,31.2,29.86,SE,141,1.0,2.0,55,0.00,,,0.00,Wunderground v.1.15,2013-02-03 22:28:00,
2013-02-03 17:34:00,46.2,31.4,29.86,SSW,211,1.0,1.0,56,0.00,,,0.00,Wunderground v.1.15,2013-02-03 22:34:00,
2013-02-03 17:40:00,45.9,31.5,29.87,West,271,1.0,1.0,57,0.00,,,0.00,Wunderground v.1.15,2013-02-03 22:40:00,
2013-02-03 17:46:00,45.6,31.2,29.87,West,271,0.0,1.0,57,0.00,,,0.00,Wunderground v.1.15,2013-02-03 22:46:00,
2013-02-03 17:52:00,45.4,31.0,29.88,NNE,25,1.0,2.0,57,0.00,,,0.00,Wunderground v.1.15,2013-02-03 22:52:00,
2013-02-03 17:58:00,45.0,32.3,29.88,NNE,30,2.0,5.0,61,0.00,,,0.00,Wunderground v.1.15,2013-02-03 22:58:00,
2013-02-03 18:04:00,44.6,32.8,29.88,North,360,3.0,3.0,63,0.00,,,0.00,Wunderground v.1.15,2013-02-03 23:04:00,
2013-02-03 18:10:00,44.4,33.0,29.89,NNE,15,1.0,1.0,64,0.00,,,0.00,Wunderground v.1.15,2013-02-03 23:10:00,
2013-02-03 18:16:00,44.1,33.1,29.89,NNE,31,1.0,3.0,65,0.00,,,0.00,Wunderground v.1.15,2013-02-03 23:16:00,
2013-02-03 18:22:00,43.8,32.8,29.89,NNE,31,1.0,1.0,65,0.00,,,0.00,Wunderground v.1.15,2013-02-03 23:22:00,
2013-02-03 18:28:00,43.4,32.4,29.89,NNE,31,0.0,1.0,65,0.00,,,0.00,Wunderground v.1.15,2013-02-03 23:28:00,
2013-02-03 18:34:00,43.1,32.5,29.90,NNE,31,0.0,0.0,66,0.00,,,0.00,Wunderground v.1.15,2013-02-03 23:34:00,
2013-02-03 18:40:00,42.3,32.5,29.90,NNE,31,0.0,0.0,68,0.00,,,0.00,Wunderground v.1.15,2013-02-03 23:40:00,
2013-02-03 18:46:00,41.5,32.4,29.90,NNE,26,0.0,1.0,70,0.00,,,0.00,Wunderground v.1.15,2013-02-03 23:46:00,
2013-02-03 18:52:00,40.8,32.1,29.91,ENE,76,0.0,0.0,71,0.00,,,0.00,Wunderground v.1.15,2013-02-03 23:52:00,
2013-02-03 18:58:00,40.0,31.7,29.91,ENE,64,0.0,1.0,72,0.00,,,0.00,Wunderground v.1.15,2013-02-03 23:58:00,
2013-02-03 19:04:00,39.6,31.7,29.91,ENE,64,0.0,0.0,73,0.00,,,0.00,Wunderground v.1.15,2013-02-04 00:04:00,
2013-02-03 19:10:00,39.5,30.5,29.91,NNE,21,0.0,0.0,70,0.00,,,0.00,Wunderground v.1.15,2013-02-04 00:10:00,
2013-02-03 19:16:00,39.6,30.3,29.91,NNW,347,1.0,1.0,69,0.00,,,0.00,Wunderground v.1.15,2013-02-04 00:16:00,
2013-02-03 19:22:00,39.6,30.3,29.92,NNW,347,0.0,0.0,69,0.00,,,0.00,Wunderground v.1.15,2013-02-04 00:22:00,
2013-02-03 19:28:00,39.3,30.0,29.92,NNW,347,0.0,0.0,69,0.00,,,0.00,Wunderground v.1.15,2013-02-04 00:28:00,
2013-02-03 19:34:00,39.1,29.1,29.92,NNW,347,0.0,1.0,67,0.00,,,0.00,Wunderground v.1.15,2013-02-04 00:34:00,
2013-02-03 19:40:00,39.0,29.0,29.92,NNW,347,0.0,0.0,67,0.00,,,0.00,Wunderground v.1.15,2013-02-04 00:40:00,
2013-02-03 19:46:00,38.6,29.3,29.92,NNW,347,0.0,0.0,69,0.00,,,0.00,Wunderground v.1.15,2013-02-04 00:46:00,
2013-02-03 19:52:00,38.3,29.0,29.93,NNW,347,0.0,0.0,69,0.00,,,0.00,Wunderground v.1.15,2013-02-04 00:52:00,
2013-02-03 19:58:00,37.8,29.2,29.93,NNW,347,0.0,1.0,71,0.00,,,0.00,Wunderground v.1.15,2013-02-04 00:58:00,
2013-02-03 20:04:00,37.3,28.8,29.93,North,360,0.0,1.0,71,0.00,,,0.00,Wunderground v.1.15,2013-02-04 01:04:00,
2013-02-03 20:10:00,37.7,28.1,29.93,North,9,1.0,1.0,68,0.00,,,0.00,Wunderground v.1.15,2013-02-04 01:10:00,
2013-02-03 20:16:00,38.5,27.7,29.92,NE,36,2.0,4.0,65,0.00,,,0.00,Wunderground v.1.15,2013-02-04 01:16:00,
2013-02-03 20:22:00,39.0,27.8,29.93,NNW,340,1.0,2.0,64,0.00,,,0.00,Wunderground v.1.15,2013-02-04 01:22:00,
2013-02-03 20:28:00,39.0,27.8,29.93,NNW,341,1.0,2.0,64,0.00,,,0.00,Wunderground v.1.15,2013-02-04 01:28:00,
2013-02-03 20:34:00,38.5,28.1,29.93,NNW,341,0.0,0.0,66,0.00,,,0.00,Wunderground v.1.15,2013-02-04 01:34:00,
2013-02-03 20:40:00,38.1,27.7,29.94,NNW,341,0.0,0.0,66,0.00,,,0.00,Wunderground v.1.15,2013-02-04 01:40:00,
2013-02-03 20:46:00,37.7,27.4,29.94,NNW,341,0.0,0.0,66,0.00,,,0.00,Wunderground v.1.15,2013-02-04 01:46:00,
2013-02-03 20:52:00,37.5,26.8,29.93,NE,46,0.0,2.0,65,0.00,,,0.00,Wunderground v.1.15,2013-02-04 01:52:00,
2013-02-03 20:58:00,37.7,27.0,29.93,NE,38,1.0,2.0,65,0.00,,,0.00,Wunderground v.1.15,2013-02-04 01:58:00,
2013-02-03 21:04:00,38.0,26.9,29.94,WNW,291,1.0,3.0,64,0.00,,,0.00,Wunderground v.1.15,2013-02-04 02:04:00,
2013-02-03 21:10:00,37.9,27.5,29.94,NNW,341,1.0,1.0,66,0.00,,,0.00,Wunderground v.1.15,2013-02-04 02:10:00,
2013-02-03 21:16:00,37.2,27.2,29.95,NNW,341,0.0,1.0,67,0.00,,,0.00,Wunderground v.1.15,2013-02-04 02:16:00,
2013-02-03 21:22:00,36.9,27.0,29.95,NW,323,0.0,0.0,67,0.00,,,0.00,Wunderground v.1.15,2013-02-04 02:22:00,
2013-02-03 21:28:00,36.9,26.6,29.94,NNW,344,0.0,1.0,66,0.00,,,0.00,Wunderground v.1.15,2013-02-04 02:28:00,
2013-02-03 21:34:00,37.1,26.4,29.94,NE,38,1.0,2.0,65,0.00,,,0.00,Wunderground v.1.15,2013-02-04 02:34:00,
2013-02-03 21:40:00,37.4,26.7,29.94,NNE,31,1.0,1.0,65,0.00,,,0.00,Wunderground v.1.15,2013-02-04 02:40:00,
2013-02-03 21:46:00,37.6,26.5,29.95,NNE,32,1.0,2.0,64,0.00,,,0.00,Wunderground v.1.15,2013-02-04 02:46:00,
2013-02-03 21:52:00,37.5,26.8,29.94,NNE,32,1.0,1.0,65,0.00,,,0.00,Wunderground v.1.15,2013-02-04 02:52:00,
2013-02-03 21:58:00,37.2,27.2,29.94,NNE,28,1.0,1.0,67,0.00,,,0.00,Wunderground v.1.15,2013-02-04 02:58:00,
2013-02-03 22:04:00,36.2,26.6,29.95,NNE,28,0.0,1.0,68,0.00,,,0.00,Wunderground v.1.15,2013-02-04 03:04:00,
2013-02-03 22:10:00,35.4,26.9,29.95,NNE,28,0.0,1.0,71,0.00,,,0.00,Wunderground v.1.15,2013-02-04 03:10:00,
2013-02-03 22:16:00,34.8,26.7,29.95,NNE,28,0.0,1.0,72,0.00,,,0.00,Wunderground v.1.15,2013-02-04 03:16:00,
2013-02-03 22:22:00,34.3,26.9,29.95,NNE,28,0.0,0.0,74,0.00,,,0.00,Wunderground v.1.15,2013-02-04 03:22:00,
2013-02-03 22:28:00,33.8,26.1,29.95,NNE,28,0.0,0.0,73,0.00,,,0.00,Wunderground v.1.15,2013-02-04 03:28:00,
2013-02-03 22:34:00,33.4,26.0,29.94,NNE,28,0.0,0.0,74,0.00,,,0.00,Wunderground v.1.15,2013-02-04 03:34:00,
2013-02-03 22:40:00,33.2,25.8,29.95,NNE,28,0.0,0.0,74,0.00,,,0.00,Wunderground v.1.15,2013-02-04 03:40:00,
2013-02-03 22:46:00,33.0,26.3,29.95,SSE,168,1.0,1.0,76,0.00,,,0.00,Wunderground v.1.15,2013-02-04 03:46:00,
2013-02-03 22:52:00,32.7,26.0,29.95,SSE,168,0.0,1.0,76,0.00,,,0.00,Wunderground v.1.15,2013-02-04 03:52:00,
2013-02-03 22:58:00,32.7,26.0,29.96,NNW,339,0.0,2.0,76,0.00,,,0.00,Wunderground v.1.15,2013-02-04 03:58:00,
2013-02-03 23:04:00,33.5,25.8,29.96,NNE,13,1.0,6.0,73,0.00,,,0.00,Wunderground v.1.15,2013-02-04 04:04:00,
2013-02-03 23:10:00,34.2,25.8,29.96,NNE,13,1.0,1.0,71,0.00,,,0.00,Wunderground v.1.15,2013-02-04 04:10:00,
2013-02-03 23:16:00,34.9,25.8,29.96,NNE,33,1.0,3.0,69,0.00,,,0.00,Wunderground v.1.15,2013-02-04 04:16:00,
2013-02-03 23:22:00,35.8,25.9,29.97,NE,40,2.0,2.0,67,0.00,,,0.00,Wunderground v.1.15,2013-02-04 04:22:00,
2013-02-03 23:28:00,36.1,25.8,29.97,NNW,343,2.0,2.0,66,0.00,,,0.00,Wunderground v.1.15,2013-02-04 04:28:00,
2013-02-03 23:34:00,36.1,25.5,29.97,North,355,1.0,2.0,65,0.00,,,0.00,Wunderground v.1.15,2013-02-04 04:34:00,
2013-02-03 23:40:00,36.0,25.7,29.97,NNW,331,1.0,1.0,66,0.00,,,0.00,Wunderground v.1.15,2013-02-04 04:40:00,
2013-02-03 23:46:00,36.0,25.7,29.97,NE,44,1.0,2.0,66,0.00,,,0.00,Wunderground v.1.15,2013-02-04 04:46:00,
2013-02-03 23:52:00,36.0,25.4,29.97,NE,43,1.0,1.0,65,0.00,,,0.00,Wunderground v.1.15,2013-02-04 04:52:00,
2013-02-03 23:58:00,36.0,25.4,29.98,NNE,27,1.0,2.0,65,0.00,,,0.00,Wunderground v.1.15,2013-02-04 04:58:00,